• Join FlightAware (Why Join?)
  • Login
  • US Flag 
03:16AM EST


 

Airport Tracker/Info


-or-


 

Live Flight TrackerFlight Track Log ✈ LBQ652 ✈ 07-May-2013 ✈ KDPA - KIXD

Flight Track Log - Related Links

Times and Time Zones

All times are in EDT time to prevent confusion due to time zone crossing. See the LBQ652 flight status page for this flight to view local times or setup timezone preferences in your user account.

Time Position Orientation Groundspeed Altitude Reporting Facility
EDT Latitude Longitude Course Direction KTS MPH feet Rate Location/Type
04:01AM 41.9108 -88.3314 250° West 234 269 3,600  Level Chicago Center
04:02AM 41.8708 -88.4122 236° Southwest 252 290 5,400 1,800 Climbing Chicago Center
04:03AM 41.8500 -88.5106 254° West 282 325 7,300 1,680 Climbing Chicago Center
04:04AM 41.8472 -88.6153 268° West 285 328 8,800 1,500 Climbing Chicago Center
04:05AM 41.8439 -88.7244 268° West 293 337 10,300 1,380 Climbing Chicago Center
04:06AM 41.9667 -88.7765 270° West  Level FlightAware Approximate
04:06AM 41.8408 -88.8369 268° West 302 348 11,700  Level Chicago Center
04:07AM 41.8364 -88.9497 267° West 305 351 13,000 1,320 Climbing Chicago Center
04:08AM 41.8325 -89.0658 267° West 313 360 14,400 1,380 Climbing Chicago Center
04:09AM 41.8289 -89.1800 268° West 311 358 15,800 1,260 Climbing Chicago Center
04:10AM 41.8133 -89.2967 260° West 321 369 17,000 1,080 Climbing Chicago Center
04:11AM 41.7778 -89.4083 247° West 328 377 18,000 1,200 Climbing Chicago Center
04:12AM 41.7422 -89.5206 247° West 329 379 19,500 1,380 Climbing Chicago Center
04:13AM 41.7058 -89.6400 248° West 328 377 20,900 1,260 Climbing Chicago Center
04:14AM 41.6697 -89.7542 247° West 334 384 22,100 1,320 Climbing Chicago Center
04:15AM 41.6347 -89.8661 247° West 329 379 23,600 1,380 Climbing Chicago Center
04:16AM 41.5883 -89.9719 240° Southwest 335 386 24,900 1,320 Climbing Chicago Center
04:17AM 41.5364 -90.0722 235° Southwest 331 381 26,300 1,260 Climbing Chicago Center
04:18AM 41.4850 -90.1697 235° Southwest 325 374 27,500 1,320 Climbing Chicago Center
04:19AM 41.4328 -90.2714 236° Southwest 330 380 29,000 1,380 Climbing Chicago Center
04:20AM 41.3819 -90.3675 235° Southwest 321 369 30,300 1,260 Climbing Chicago Center
04:21AM 41.3308 -90.4653 235° Southwest 323 372 31,600 1,200 Climbing Chicago Center
04:23AM 41.2808 -90.5603 235° Southwest 318 366 32,800 1,080 Climbing Chicago Center
04:24AM 41.2289 -90.6594 235° Southwest 328 377 33,800 600 Climbing Chicago Center
04:25AM 41.1672 -90.7758 235° Southwest 325 374 34,000 60 Climbing Chicago Center
04:26AM 41.1106 -90.8825 235° Southwest 348 400 34,000  Level Chicago Center
04:27AM 41.0522 -90.9903 234° Southwest 359 413 34,000  Level Chicago Center
04:28AM 40.9936 -91.1014 235° Southwest 367 422 34,000  Level Chicago Center
04:29AM 40.9333 -91.2122 234° Southwest 371 427 34,000  Level Chicago Center
04:30AM 40.8711 -91.3281 235° Southwest 374 430 34,000  Level Chicago Center
04:31AM 40.8117 -91.4369 234° Southwest 371 427 34,000  Level Chicago Center
04:32AM 40.7522 -91.5469 235° Southwest 372 428 34,000  Level Chicago Center
04:33AM 40.6931 -91.6569 235° Southwest 371 427 34,000  Level Chicago Center
04:34AM 40.6325 -91.7664 234° Southwest 371 427 34,000  Level Chicago Center
04:34AM 40.5947 -91.8328 233° Southwest 374 430 34,000  Level Kansas City Center
04:35AM 40.5331 -91.9422 233° Southwest 375 432 34,000  Level Kansas City Center
04:36AM 40.4744 -92.0519 235° Southwest 373 429 34,000  Level Kansas City Center
04:37AM 40.4019 -92.1833 234° Southwest 372 428 34,000 -480 Level Kansas City Center
04:38AM 40.3397 -92.2953 234° Southwest 376 433 33,100 -840 Descending Kansas City Center
04:39AM 40.2806 -92.3986 233° Southwest 386 444 32,400 -780 Descending Kansas City Center
04:40AM 40.2075 -92.5303 234° Southwest 395 455 31,600 -840 Descending Kansas City Center
04:41AM 40.1453 -92.6417 234° Southwest 396 456 30,800 -780 Descending Kansas City Center
04:42AM 40.0817 -92.7542 234° Southwest 399 459 30,100 -840 Descending Kansas City Center
04:43AM 40.0078 -92.8828 233° Southwest 402 463 29,200 -900 Descending Kansas City Center
04:44AM 39.9406 -93.0014 234° Southwest 406 467 28,400 -840 Descending Kansas City Center
04:45AM 39.8731 -93.1189 233° Southwest 407 468 27,600 -780 Descending Kansas City Center
04:46AM 39.8050 -93.2356 233° Southwest 408 470 26,900 -840 Descending Kansas City Center
04:47AM 39.7394 -93.3508 234° Southwest 402 463 26,000 -960 Descending Kansas City Center
04:48AM 39.6747 -93.4628 233° Southwest 396 456 25,000 -1,020 Descending Kansas City Center
04:49AM 39.6133 -93.5731 234° Southwest 384 442 24,000 -1,020 Descending Kansas City Center
04:50AM 39.5508 -93.6783 232° Southwest 373 429 23,000 -540 Descending Kansas City Center
04:51AM 39.4883 -93.7864 233° Southwest 358 412 23,000  Level Kansas City Center
04:52AM 39.4303 -93.8856 233° Southwest 360 414 23,000  Level Kansas City Center
04:53AM 39.3622 -94.0008 233° Southwest 360 414 23,000 -240 Level Kansas City Center
04:54AM 39.3031 -94.1019 233° Southwest 368 423 22,600 -1,440 Descending Kansas City Center
04:55AM 39.2442 -94.2014 233° Southwest 365 420 20,100 -2,820 Descending Kansas City Center
04:56AM 39.1772 -94.3142 233° Southwest 353 406 17,000 -2,880 Descending Kansas City Center
04:57AM 39.1244 -94.4017 232° Southwest 327 376 14,400 -2,580 Descending Kansas City Center
04:59AM 39.0717 -94.4908 233° Southwest 326 375 11,800 -2,460 Descending Kansas City Center
05:00AM 39.0208 -94.5758 232° Southwest 317 365 9,500 -2,460 Descending Kansas City Center
05:01AM 38.9675 -94.6619 231° Southwest 277 319 6,900 -1,560 Descending Kansas City Center
05:02AM 38.9222 -94.7283 229° Southwest 270 311 6,400 -540 Descending Kansas City Center